createdAt,value
2019-03-21T00:00:21.955Z,459.1
2019-03-21T00:01:24.378Z,459.6
2019-03-21T00:02:26.799Z,459.1
2019-03-21T00:03:29.224Z,459.3
2019-03-21T00:04:31.647Z,459.5
2019-03-21T00:05:33.812Z,459.3
2019-03-21T00:06:36.247Z,459.3
2019-03-21T00:07:38.670Z,459.6
2019-03-21T00:08:40.546Z,459.3
2019-03-21T00:09:42.980Z,459.5
2019-03-21T00:10:45.409Z,460
2019-03-21T00:11:47.553Z,460.5
2019-03-21T00:12:49.428Z,460.3
2019-03-21T00:13:51.854Z,460.5
2019-03-21T00:14:54.008Z,460.9
2019-03-21T00:15:56.143Z,460.7
2019-03-21T00:16:58.003Z,461
2019-03-21T00:18:00.469Z,460.8
2019-03-21T00:19:02.888Z,460.8
2019-03-21T00:20:05.323Z,460.8
2019-03-21T00:21:07.760Z,460.6
2019-03-21T00:22:09.932Z,461
2019-03-21T00:23:12.063Z,461
2019-03-21T00:24:14.490Z,461.4
2019-03-21T00:25:16.645Z,460.8
2019-03-21T00:26:18.816Z,460.9
2019-03-21T00:27:20.977Z,461
2019-03-21T00:28:23.108Z,460.9
2019-03-21T00:29:25.270Z,461.6
2019-03-21T00:30:27.698Z,461.3
2019-03-21T00:31:30.126Z,461.5
2019-03-21T00:32:32.546Z,461.4
2019-03-21T00:33:34.969Z,461.2
2019-03-21T00:34:37.114Z,461.3
2019-03-21T00:35:40.673Z,461.1
2019-03-21T00:36:42.881Z,461
2019-03-21T00:37:45.295Z,461.3
2019-03-21T00:38:47.734Z,461.2
2019-03-21T00:39:49.900Z,461.1
2019-03-21T00:40:52.334Z,461.3
2019-03-21T00:41:54.202Z,461.3
2019-03-21T00:42:56.640Z,461.5
2019-03-21T00:43:59.076Z,461.4
2019-03-21T00:45:01.504Z,461.5
2019-03-21T00:46:03.646Z,461.5
2019-03-21T00:47:05.798Z,461.7
2019-03-21T00:48:08.229Z,462
2019-03-21T00:49:10.117Z,462.1
2019-03-21T00:50:12.264Z,461.7
2019-03-21T00:51:14.737Z,461.4
2019-03-21T00:52:16.897Z,461.4
2019-03-21T00:53:19.069Z,461.7
2019-03-21T00:54:21.495Z,461.6
2019-03-21T00:55:23.383Z,461.8
2019-03-21T00:56:26.023Z,462.1
2019-03-21T00:57:28.457Z,461.9
2019-03-21T00:58:30.610Z,462
2019-03-21T00:59:32.765Z,461.9
2019-03-21T01:00:34.625Z,461.8
2019-03-21T01:01:36.773Z,462.3
2019-03-21T01:02:39.212Z,462
2019-03-21T01:03:41.635Z,461.9
2019-03-21T01:04:43.787Z,461.9
2019-03-21T01:05:46.230Z,462
2019-03-21T01:06:48.655Z,461.9
2019-03-21T01:07:51.089Z,462.6
2019-03-21T01:08:53.265Z,462.3
2019-03-21T01:09:55.645Z,462.3
2019-03-21T01:10:57.861Z,462.6
2019-03-21T01:12:00.302Z,462.9
2019-03-21T01:13:02.490Z,462.4
2019-03-21T01:14:04.393Z,462.9
2019-03-21T01:15:06.821Z,463.2
2019-03-21T01:16:09.247Z,463
2019-03-21T01:17:11.377Z,463.4
2019-03-21T01:18:13.520Z,463.4
2019-03-21T01:19:15.953Z,463.5
2019-03-21T01:20:18.387Z,462.8
2019-03-21T01:21:20.857Z,463.2
2019-03-21T01:22:23.307Z,463.3
2019-03-21T01:23:25.499Z,463.2
2019-03-21T01:24:27.361Z,463.3
2019-03-21T01:25:29.777Z,463.8
2019-03-21T01:26:32.201Z,463.9
2019-03-21T01:27:34.627Z,463.8
2019-03-21T01:28:36.787Z,464.7
2019-03-21T01:29:38.949Z,464.2
2019-03-21T01:30:41.369Z,464.4
2019-03-21T01:31:43.797Z,464.6
2019-03-21T01:32:45.723Z,464.8
2019-03-21T01:33:48.149Z,464.8
2019-03-21T01:34:50.318Z,465.2
2019-03-21T01:35:52.740Z,465.1
2019-03-21T01:36:55.172Z,465.4
2019-03-21T01:37:57.598Z,465.1
2019-03-21T01:39:00.043Z,465.4
2019-03-21T01:40:02.485Z,465.5
2019-03-21T01:41:04.914Z,465.5
2019-03-21T01:42:07.067Z,465.5
2019-03-21T01:43:09.249Z,465.7
2019-03-21T01:44:11.678Z,466.1
2019-03-21T01:45:13.549Z,466.2
2019-03-21T01:46:15.969Z,466.5
2019-03-21T01:47:18.143Z,466.6
2019-03-21T01:48:20.585Z,467
2019-03-21T01:49:23.001Z,466.7
2019-03-21T01:50:25.435Z,466.1
2019-03-21T01:51:27.312Z,466.1
2019-03-21T01:52:28.933Z,466.2
2019-03-21T01:53:31.355Z,466.6
2019-03-21T01:54:33.521Z,466.6
2019-03-21T01:55:35.959Z,466.8
2019-03-21T01:56:37.819Z,466.9
2019-03-21T01:57:40.271Z,467
2019-03-21T01:58:42.749Z,467.1
2019-03-21T01:59:45.207Z,466.9
2019-03-21T02:00:47.637Z,467
2019-03-21T02:01:50.077Z,467.4
2019-03-21T02:02:51.948Z,467.3
2019-03-21T02:03:54.381Z,466.9
2019-03-21T02:04:56.270Z,467
2019-03-21T02:05:58.695Z,466.9
2019-03-21T02:07:00.586Z,466.9
2019-03-21T02:08:04.359Z,466.8
2019-03-21T02:09:06.249Z,466.9
2019-03-21T02:10:08.699Z,467
2019-03-21T02:11:10.859Z,466.9
2019-03-21T02:12:12.751Z,467.1
2019-03-21T02:13:14.897Z,467.1
2019-03-21T02:14:17.227Z,467.1
2019-03-21T02:15:19.417Z,467.1
2019-03-21T02:16:21.551Z,466.9
2019-03-21T02:17:23.983Z,466.9
2019-03-21T02:18:26.115Z,466.7
2019-03-21T02:19:28.268Z,466.8
2019-03-21T02:20:30.412Z,466.6
2019-03-21T02:21:32.569Z,466.4
2019-03-21T02:22:34.450Z,466.7
2019-03-21T02:23:36.601Z,466.7
2019-03-21T02:24:39.045Z,466.7
2019-03-21T02:25:41.489Z,466.2
2019-03-21T02:26:43.345Z,466.5
2019-03-21T02:27:45.780Z,466.3
2019-03-21T02:28:47.645Z,466.3
2019-03-21T02:29:49.792Z,466.5
2019-03-21T02:30:52.229Z,466.1
2019-03-21T02:31:54.390Z,465.6
2019-03-21T02:32:56.537Z,465.9
2019-03-21T02:33:58.950Z,465.9
2019-03-21T02:35:01.505Z,465.5
2019-03-21T02:36:03.936Z,465.8
2019-03-21T02:37:06.360Z,466
2019-03-21T02:38:08.237Z,465.9
2019-03-21T02:39:10.668Z,465.8
2019-03-21T02:40:13.090Z,465.7
2019-03-21T02:41:15.248Z,465.6
2019-03-21T02:42:17.403Z,465.4
2019-03-21T02:43:19.547Z,465.6
2019-03-21T02:44:21.731Z,465.6
2019-03-21T02:45:23.898Z,465.9
2019-03-21T02:46:26.340Z,466
2019-03-21T02:47:28.808Z,466.1
2019-03-21T02:48:31.262Z,466
2019-03-21T02:49:33.681Z,465.8
2019-03-21T02:50:36.109Z,466
2019-03-21T02:51:38.533Z,466.2
2019-03-21T02:52:40.966Z,466.3
2019-03-21T02:53:43.399Z,466
2019-03-21T02:54:45.828Z,466.1
2019-03-21T02:55:48.273Z,465.9
2019-03-21T02:56:50.129Z,465.9
2019-03-21T02:57:52.570Z,466.6
2019-03-21T02:58:54.740Z,466.2
2019-03-21T02:59:56.907Z,466.1
2019-03-21T03:00:59.353Z,466.3
2019-03-21T03:02:01.244Z,466.1
2019-03-21T03:03:03.405Z,466.6
2019-03-21T03:04:05.903Z,466.1
2019-03-21T03:05:08.340Z,466.5
2019-03-21T03:06:10.785Z,466.2
2019-03-21T03:07:12.668Z,466.7
2019-03-21T03:08:15.096Z,466.1
2019-03-21T03:09:17.250Z,466.2
2019-03-21T03:10:19.408Z,465.8
2019-03-21T03:11:21.850Z,465.7
2019-03-21T03:12:24.011Z,465.7
2019-03-21T03:13:26.173Z,465.9
2019-03-21T03:14:28.312Z,466
2019-03-21T03:15:30.189Z,466.1
2019-03-21T03:16:32.605Z,466
2019-03-21T03:17:34.765Z,466.2
2019-03-21T03:18:36.899Z,466.2
2019-03-21T03:19:39.071Z,466.4
2019-03-21T03:20:41.231Z,466.5
2019-03-21T03:21:43.648Z,466.4
2019-03-21T03:22:46.075Z,466.5
2019-03-21T03:23:48.310Z,466.3
2019-03-21T03:24:50.760Z,466.3
2019-03-21T03:25:53.421Z,466.3
2019-03-21T03:26:55.839Z,466.1
2019-03-21T03:27:57.709Z,466.3
2019-03-21T03:28:59.850Z,466.4
2019-03-21T03:30:02.635Z,466.2
2019-03-21T03:31:04.843Z,466
2019-03-21T03:32:07.261Z,466.1
2019-03-21T03:33:09.256Z,465.7
2019-03-21T03:34:11.428Z,466
2019-03-21T03:35:13.585Z,465.7
2019-03-21T03:36:16.056Z,465.7
2019-03-21T03:37:18.509Z,465.8
2019-03-21T03:38:20.673Z,465.8
2019-03-21T03:39:23.099Z,466.2
2019-03-21T03:40:25.250Z,465.9
2019-03-21T03:41:27.690Z,465.7
2019-03-21T03:42:29.869Z,466
2019-03-21T03:43:31.778Z,465.5
2019-03-21T03:44:33.928Z,465.7
2019-03-21T03:46:41.334Z,466
2019-03-21T03:47:43.765Z,466.1
2019-03-21T03:48:45.918Z,465.6
2019-03-21T03:49:48.049Z,466.2
2019-03-21T03:50:50.231Z,466.1
2019-03-21T03:51:52.668Z,466.1
2019-03-21T03:52:55.114Z,466.1
2019-03-21T03:53:57.529Z,466.3
2019-03-21T03:54:59.676Z,466.1
2019-03-21T03:56:02.117Z,465.8
2019-03-21T03:57:04.268Z,465.9
2019-03-21T03:58:06.691Z,465.9
2019-03-21T03:59:09.127Z,466
2019-03-21T04:00:11.283Z,465.6
2019-03-21T04:01:13.172Z,465.9
2019-03-21T04:02:15.361Z,466.1
2019-03-21T04:03:17.797Z,466.1
2019-03-21T04:04:20.230Z,466.5
2019-03-21T04:05:22.656Z,466.2
2019-03-21T04:06:24.823Z,466.4
2019-03-21T04:07:27.269Z,466.3
2019-03-21T04:08:29.704Z,466.4
2019-03-21T04:09:32.122Z,465.9
2019-03-21T04:10:34.570Z,466.2
2019-03-21T04:11:36.781Z,466.3
2019-03-21T04:12:39.209Z,466.3
2019-03-21T04:13:41.635Z,466.2
2019-03-21T04:14:44.072Z,466.1
2019-03-21T04:16:51.490Z,466.7
2019-03-21T04:17:53.649Z,466.7
2019-03-21T04:18:55.882Z,466.6
2019-03-21T04:19:58.026Z,466.2
2019-03-21T04:21:00.179Z,466.4
2019-03-21T04:22:02.331Z,466.2
2019-03-21T04:23:04.776Z,466.7
2019-03-21T04:24:06.669Z,466.5
2019-03-21T04:25:08.547Z,466.3
2019-03-21T04:26:10.719Z,466
2019-03-21T04:27:13.135Z,465.9
2019-03-21T04:28:15.302Z,466.3
2019-03-21T04:29:17.165Z,466.5
2019-03-21T04:30:19.142Z,466.3
2019-03-21T04:31:21.316Z,466.6
2019-03-21T04:32:23.499Z,466.7
2019-03-21T04:33:25.403Z,466.8
2019-03-21T04:34:27.852Z,466.9
2019-03-21T04:35:30.279Z,466.9
2019-03-21T04:36:32.717Z,467.2
2019-03-21T04:37:35.141Z,467
2019-03-21T04:38:37.335Z,467.2
2019-03-21T04:39:39.203Z,467.3
2019-03-21T04:40:41.361Z,467.6
2019-03-21T04:41:43.874Z,467.8
2019-03-21T04:42:46.315Z,467.8
2019-03-21T04:43:48.776Z,467.6
2019-03-21T04:44:51.209Z,468
2019-03-21T04:46:58.626Z,468.3
2019-03-21T04:48:01.056Z,468.4
2019-03-21T04:49:03.203Z,468.4
2019-03-21T04:50:05.087Z,468.5
2019-03-21T04:51:07.516Z,468.5
2019-03-21T04:52:09.658Z,468.9
2019-03-21T04:53:11.836Z,469.2
2019-03-21T04:54:14.258Z,469.2
2019-03-21T04:55:16.686Z,469.7
2019-03-21T04:56:18.829Z,469.2
2019-03-21T04:57:20.998Z,469.2
2019-03-21T04:58:23.178Z,469.6
2019-03-21T04:59:25.636Z,469.6
2019-03-21T05:00:27.239Z,469.4
2019-03-21T05:01:29.448Z,470
2019-03-21T05:02:31.879Z,469.3
2019-03-21T05:03:34.015Z,469.5
2019-03-21T05:04:36.162Z,470.1
2019-03-21T05:05:38.609Z,470
2019-03-21T05:06:41.033Z,470.1
2019-03-21T05:07:42.927Z,470.5
2019-03-21T05:08:45.071Z,470.1
2019-03-21T05:09:47.219Z,470.3
2019-03-21T05:10:49.692Z,470.4
2019-03-21T05:11:51.893Z,470.3
2019-03-21T05:12:54.016Z,470.1
2019-03-21T05:13:56.473Z,470.7
2019-03-21T05:14:58.918Z,470.9
2019-03-21T05:16:01.337Z,471.1
2019-03-21T05:17:03.227Z,470.9
2019-03-21T05:18:05.397Z,471.2
2019-03-21T05:19:07.562Z,471.3
2019-03-21T05:20:09.999Z,471.5
2019-03-21T05:21:12.417Z,471.5
2019-03-21T05:22:14.852Z,471.7
2019-03-21T05:23:17.029Z,471.7
2019-03-21T05:24:19.454Z,471.4
2019-03-21T05:25:21.333Z,471.4
2019-03-21T05:26:23.769Z,471.6
2019-03-21T05:27:26.198Z,471.6
2019-03-21T05:28:28.646Z,472
2019-03-21T05:29:30.803Z,472.2
2019-03-21T05:30:32.984Z,472.2
2019-03-21T05:31:35.421Z,472.2
2019-03-21T05:32:37.563Z,472.2
2019-03-21T05:33:39.709Z,472.1
2019-03-21T05:34:42.128Z,472.3
2019-03-21T05:35:44.287Z,472
2019-03-21T05:36:46.459Z,471.7
2019-03-21T05:37:48.319Z,472.4
2019-03-21T05:38:50.741Z,472.6
2019-03-21T05:39:53.196Z,472.5
2019-03-21T05:40:55.620Z,472.5
2019-03-21T05:41:58.059Z,472.5
2019-03-21T05:43:00.213Z,472
2019-03-21T05:44:02.425Z,472.3
2019-03-21T05:45:04.847Z,472.4
2019-03-21T05:46:06.982Z,472.6
2019-03-21T05:47:09.427Z,472.2
2019-03-21T05:48:11.857Z,471.9
2019-03-21T05:49:14.294Z,471.4
2019-03-21T05:50:17.040Z,471.5
2019-03-21T05:51:19.184Z,471.3
2019-03-21T05:52:21.613Z,471.1
2019-03-21T05:53:23.745Z,471
2019-03-21T05:54:26.176Z,470.9
2019-03-21T05:55:28.865Z,471.2
2019-03-21T05:56:31.010Z,470.9
2019-03-21T05:57:33.456Z,470.8
2019-03-21T05:58:35.327Z,470.4
2019-03-21T05:59:37.768Z,470.7
2019-03-21T06:00:39.963Z,470.4
2019-03-21T06:01:42.129Z,470.5
2019-03-21T06:02:44.283Z,470.5
2019-03-21T06:03:46.151Z,470.4
2019-03-21T06:04:48.572Z,470.4
2019-03-21T06:05:50.989Z,470.1
2019-03-21T06:06:53.414Z,470.5
2019-03-21T06:07:55.834Z,470.4
2019-03-21T06:08:58.014Z,470.3
2019-03-21T06:10:00.445Z,470.3
2019-03-21T06:11:02.394Z,470.3
2019-03-21T06:12:04.807Z,470.2
2019-03-21T06:13:06.969Z,470
2019-03-21T06:14:09.454Z,470
2019-03-21T06:15:11.879Z,469.5
2019-03-21T06:16:14.308Z,469.3
2019-03-21T06:17:16.747Z,469.5
2019-03-21T06:18:18.905Z,469.1
2019-03-21T06:19:21.065Z,468.9
2019-03-21T06:20:22.647Z,468.9
2019-03-21T06:21:24.808Z,468.9
2019-03-21T06:22:26.428Z,468.9
2019-03-21T06:23:28.860Z,469
2019-03-21T06:24:31.298Z,469.1
2019-03-21T06:25:33.731Z,468.9
2019-03-21T06:26:36.208Z,468.7
2019-03-21T06:27:38.398Z,468.8
2019-03-21T06:28:40.567Z,468.4
2019-03-21T06:29:43.044Z,468.5
2019-03-21T06:30:45.509Z,468.7
2019-03-21T06:31:47.925Z,468.8
2019-03-21T06:32:50.367Z,468.4
2019-03-21T06:33:52.809Z,468.4
2019-03-21T06:34:55.274Z,468.6
2019-03-21T06:35:57.700Z,468.6
2019-03-21T06:37:00.128Z,468.4
2019-03-21T06:38:02.574Z,468.7
2019-03-21T06:39:04.718Z,468.2
2019-03-21T06:40:06.591Z,468.2
2019-03-21T06:41:08.744Z,468.1
2019-03-21T06:42:11.164Z,468.5
2019-03-21T06:43:13.307Z,468.6
2019-03-21T06:44:15.737Z,468.1
2019-03-21T06:45:18.169Z,468
2019-03-21T06:46:20.594Z,467.6
2019-03-21T06:47:22.746Z,467.6
2019-03-21T06:48:25.172Z,467.6
2019-03-21T06:49:27.605Z,467.8
2019-03-21T06:50:30.026Z,467.7
2019-03-21T06:51:31.909Z,468.2
2019-03-21T06:52:34.079Z,467.8
2019-03-21T06:53:36.527Z,467.5
2019-03-21T06:54:38.695Z,467.4
2019-03-21T06:55:40.864Z,466.9
2019-03-21T06:56:42.737Z,467.2
2019-03-21T06:57:45.214Z,467.1
2019-03-21T06:58:47.372Z,466.9
2019-03-21T06:59:49.538Z,466.7
2019-03-21T07:00:51.701Z,466.7
2019-03-21T07:01:54.118Z,466.6
2019-03-21T07:02:55.746Z,466.8
2019-03-21T07:05:03.155Z,467
2019-03-21T07:06:05.586Z,466.4
2019-03-21T07:08:12.735Z,466.3
2019-03-21T07:09:15.162Z,466.1
2019-03-21T07:10:17.585Z,465.9
2019-03-21T07:11:19.747Z,466
2019-03-21T07:12:21.913Z,465.8
2019-03-21T07:13:24.063Z,465.9
2019-03-21T07:14:26.509Z,465.7
2019-03-21T07:15:28.942Z,465.7
2019-03-21T07:16:31.371Z,466
2019-03-21T07:17:33.522Z,465.5
2019-03-21T07:18:35.389Z,466
2019-03-21T07:19:37.827Z,466
2019-03-21T07:20:40.258Z,466.2
2019-03-21T07:21:42.417Z,466.4
2019-03-21T07:22:44.849Z,466.3
2019-03-21T07:23:47.013Z,466.5
2019-03-21T07:24:49.454Z,465.8
2019-03-21T07:25:51.326Z,466.2
2019-03-21T07:26:53.485Z,465.8
2019-03-21T07:27:55.632Z,465.8
2019-03-21T07:28:58.075Z,465.5
2019-03-21T07:30:00.388Z,465.3
2019-03-21T07:31:02.547Z,466.1
2019-03-21T07:32:04.977Z,466
2019-03-21T07:33:07.401Z,465.6
2019-03-21T07:35:14.833Z,465.4
2019-03-21T07:36:17.266Z,465.3
2019-03-21T07:37:19.433Z,465
2019-03-21T07:38:21.853Z,465
2019-03-21T07:39:24.003Z,465
2019-03-21T07:40:26.459Z,464.7
2019-03-21T07:41:28.915Z,464.5
2019-03-21T07:42:31.079Z,464.7
2019-03-21T07:43:33.235Z,465
2019-03-21T07:44:35.668Z,464.4
2019-03-21T07:45:37.529Z,464.4
2019-03-21T07:46:39.965Z,465.1
2019-03-21T07:47:42.396Z,464.2
2019-03-21T07:48:44.542Z,464.5
2019-03-21T07:49:46.709Z,464.6
2019-03-21T07:50:48.872Z,464.6
2019-03-21T07:51:51.317Z,464.7
2019-03-21T07:52:53.498Z,464.5
2019-03-21T07:53:55.917Z,464.7
2019-03-21T07:54:58.374Z,465.3
2019-03-21T07:56:00.808Z,465.4
2019-03-21T07:57:03.262Z,465.8
2019-03-21T07:58:05.702Z,465.5
2019-03-21T07:59:08.152Z,465.4
2019-03-21T08:00:10.317Z,465.6
2019-03-21T08:01:12.818Z,465.8
2019-03-21T08:02:15.249Z,464.8
2019-03-21T08:03:17.703Z,465.3
2019-03-21T08:04:20.155Z,466
2019-03-21T08:05:22.576Z,465.5
2019-03-21T08:06:25.010Z,465.9
2019-03-21T08:07:26.925Z,465.7
2019-03-21T08:08:29.357Z,465.6
2019-03-21T08:09:32.292Z,465.2
2019-03-21T08:10:34.733Z,466
2019-03-21T08:11:37.159Z,465.6
2019-03-21T08:12:39.302Z,465.6
2019-03-21T08:13:41.231Z,465.8
2019-03-21T08:14:43.391Z,465.4
2019-03-21T08:15:45.881Z,465.3
2019-03-21T08:16:48.026Z,466
2019-03-21T08:17:49.894Z,465.8
2019-03-21T08:18:51.512Z,466
2019-03-21T08:19:53.656Z,465.8
2019-03-21T08:22:01.070Z,465.4
2019-03-21T08:23:03.502Z,466
2019-03-21T08:24:05.928Z,465.1
2019-03-21T08:25:08.101Z,465.7
2019-03-21T08:26:10.541Z,465.4
2019-03-21T08:27:12.980Z,466
2019-03-21T08:28:15.117Z,466.1
2019-03-21T08:29:17.547Z,465.8
2019-03-21T08:30:19.724Z,466
2019-03-21T08:31:22.138Z,465.6
2019-03-21T08:32:24.290Z,465.6
2019-03-21T08:33:26.725Z,465.2
2019-03-21T08:34:29.140Z,465.5
2019-03-21T08:35:31.568Z,465.2
2019-03-21T08:36:34.015Z,465.3
2019-03-21T08:37:36.180Z,465.7
2019-03-21T08:38:38.610Z,465.4
2019-03-21T08:39:40.793Z,465.1
2019-03-21T08:40:44.727Z,465
2019-03-21T08:41:47.168Z,465.3
2019-03-21T08:42:49.600Z,464.8
2019-03-21T08:43:51.477Z,464.9
2019-03-21T08:44:53.911Z,464.8
2019-03-21T08:45:56.068Z,465
2019-03-21T08:46:58.498Z,464.8
2019-03-21T08:48:00.925Z,465.5
2019-03-21T08:49:03.357Z,465.2
2019-03-21T08:50:05.779Z,465.6
2019-03-21T08:52:13.266Z,465.6
2019-03-21T08:53:15.429Z,465.9
2019-03-21T08:54:17.578Z,465.1
2019-03-21T08:55:19.755Z,465.4
2019-03-21T08:56:21.933Z,465.1
2019-03-21T08:57:24.368Z,465.3
2019-03-21T08:58:26.520Z,464.2
2019-03-21T08:59:28.397Z,464.8
2019-03-21T09:01:35.272Z,465.3
2019-03-21T09:02:37.712Z,466
2019-03-21T09:03:40.149Z,464.2
2019-03-21T09:04:42.295Z,465
2019-03-21T09:05:44.730Z,466.4
2019-03-21T09:06:46.745Z,465.2
2019-03-21T09:07:48.652Z,465
2019-03-21T09:08:51.096Z,465.5
2019-03-21T09:09:53.317Z,465.7
2019-03-21T09:10:55.517Z,465.2
2019-03-21T09:11:57.658Z,465.6
2019-03-21T09:12:59.822Z,465.5
2019-03-21T09:14:02.248Z,466.6
2019-03-21T09:15:04.417Z,466.1
2019-03-21T09:16:06.850Z,466.6
2019-03-21T09:17:08.976Z,466.2
2019-03-21T09:18:11.428Z,466.7
2019-03-21T09:19:13.577Z,466.5
2019-03-21T09:20:15.722Z,465.7
2019-03-21T09:22:23.145Z,466.4
2019-03-21T09:23:25.264Z,466.6
2019-03-21T09:24:27.406Z,466.8
2019-03-21T09:25:29.572Z,467.1
2019-03-21T09:26:31.726Z,466.8
2019-03-21T09:27:33.870Z,466
2019-03-21T09:28:36.026Z,466.6
2019-03-21T09:29:38.454Z,466.9
2019-03-21T09:30:40.876Z,466.1
2019-03-21T09:31:43.307Z,466.4
2019-03-21T09:32:45.745Z,467.3
2019-03-21T09:33:47.896Z,467.3
2019-03-21T09:34:49.835Z,467.3
2019-03-21T09:35:51.726Z,466.9
2019-03-21T09:36:53.866Z,467
2019-03-21T09:37:56.286Z,466.9
2019-03-21T09:38:58.176Z,467.6
2019-03-21T09:40:00.044Z,467.7
2019-03-21T09:41:02.214Z,467.6
2019-03-21T09:42:04.374Z,467.9
2019-03-21T09:43:06.803Z,468
2019-03-21T09:44:08.948Z,467.7
2019-03-21T09:45:11.379Z,467.4
2019-03-21T09:46:13.267Z,467.6
2019-03-21T09:47:15.438Z,467.9
2019-03-21T09:48:17.893Z,467.4
2019-03-21T09:49:20.071Z,467.6
2019-03-21T09:50:22.225Z,467
2019-03-21T09:52:29.382Z,467.5
2019-03-21T09:53:31.809Z,467.5
2019-03-21T09:54:34.243Z,468.1
2019-03-21T09:55:36.671Z,468
2019-03-21T09:56:39.111Z,467.6
2019-03-21T09:57:41.664Z,467.3
2019-03-21T09:58:44.097Z,467.3
2019-03-21T09:59:46.521Z,467.7
2019-03-21T10:00:48.689Z,467.6
2019-03-21T10:01:50.835Z,468
2019-03-21T10:02:53.309Z,467.3
2019-03-21T10:03:55.864Z,467.4
2019-03-21T10:04:58.043Z,468.2
2019-03-21T10:06:00.505Z,468.2
2019-03-21T10:07:02.941Z,468.5
2019-03-21T10:08:05.108Z,467.7
2019-03-21T10:09:07.538Z,468.2
2019-03-21T10:10:09.688Z,468.3
2019-03-21T10:11:11.829Z,468.6
2019-03-21T10:12:14.279Z,468.9
2019-03-21T10:13:16.704Z,468.6
2019-03-21T10:14:19.148Z,467.9
2019-03-21T10:15:21.584Z,468.8
2019-03-21T10:16:24.035Z,468.6
2019-03-21T10:17:26.168Z,468.4
2019-03-21T10:18:28.327Z,468.6
2019-03-21T10:19:30.749Z,468.4
2019-03-21T10:20:33.184Z,469
2019-03-21T10:22:40.585Z,468.5
2019-03-21T10:23:43.027Z,469
2019-03-21T10:24:45.436Z,468.9
2019-03-21T10:25:47.858Z,469.7
2019-03-21T10:26:50.021Z,469.1
2019-03-21T10:27:52.458Z,469.7
2019-03-21T10:28:54.611Z,469.3
2019-03-21T10:29:56.780Z,469.2
2019-03-21T10:30:59.346Z,469.3
2019-03-21T10:32:01.248Z,469.2
2019-03-21T10:33:03.728Z,469.3
2019-03-21T10:34:05.878Z,468.9
2019-03-21T10:35:07.806Z,468.9
2019-03-21T10:36:10.229Z,470.1
2019-03-21T10:37:12.395Z,468.4
2019-03-21T10:38:14.530Z,468.9
2019-03-21T10:39:16.958Z,469.7
2019-03-21T10:40:19.119Z,469.2
2019-03-21T10:41:21.539Z,469.8
2019-03-21T10:42:23.702Z,469.4
2019-03-21T10:43:26.126Z,469.8
2019-03-21T10:44:27.989Z,469.8
2019-03-21T10:45:29.570Z,469.5
2019-03-21T10:46:31.708Z,469.7
2019-03-21T10:47:34.137Z,470.1
2019-03-21T10:48:36.572Z,469.5
2019-03-21T10:49:39.000Z,470.3
2019-03-21T10:50:41.450Z,469.7
2019-03-21T10:52:49.533Z,470.5
2019-03-21T10:53:51.957Z,470.8
2019-03-21T10:54:54.394Z,469.9
2019-03-21T10:55:56.613Z,470.4
2019-03-21T10:56:58.489Z,470.8
2019-03-21T10:58:00.372Z,470.9
2019-03-21T10:59:02.556Z,470.5
2019-03-21T11:00:04.747Z,470.8
2019-03-21T11:01:06.890Z,471
2019-03-21T11:02:09.668Z,470.8
2019-03-21T11:03:11.564Z,471
2019-03-21T11:04:13.973Z,471
2019-03-21T11:05:16.124Z,471.5
2019-03-21T11:06:18.564Z,471.2
2019-03-21T11:07:20.998Z,471.4
2019-03-21T11:08:23.135Z,471.7
2019-03-21T11:09:25.578Z,472
2019-03-21T11:10:28.016Z,471.7
2019-03-21T11:11:30.445Z,472.3
2019-03-21T11:12:32.886Z,471.6
2019-03-21T11:13:35.321Z,471.3
2019-03-21T11:14:37.465Z,471.6
2019-03-21T11:15:39.630Z,472
2019-03-21T11:16:41.533Z,471.3
2019-03-21T11:17:43.716Z,471.5
2019-03-21T11:18:46.173Z,472.1
2019-03-21T11:19:48.585Z,471.6
2019-03-21T11:20:50.747Z,471.9
2019-03-21T11:21:52.940Z,471.7
2019-03-21T11:24:00.354Z,472.4
2019-03-21T11:25:02.773Z,472
2019-03-21T11:26:04.928Z,472.4
2019-03-21T11:27:07.368Z,472.5
2019-03-21T11:28:09.495Z,472.3
2019-03-21T11:29:11.940Z,471.8
2019-03-21T11:31:19.090Z,472.8
2019-03-21T11:32:21.527Z,473.3
2019-03-21T11:33:23.695Z,473.4
2019-03-21T11:34:25.591Z,473.6
2019-03-21T11:35:27.736Z,473.7
2019-03-21T11:37:35.144Z,472.9
2019-03-21T11:38:37.278Z,472.8
2019-03-21T11:39:39.156Z,473.2
2019-03-21T11:40:41.594Z,473
2019-03-21T11:41:43.819Z,473.9
2019-03-21T11:42:45.703Z,473.1
2019-03-21T11:43:48.143Z,474
2019-03-21T11:44:50.572Z,474.2
2019-03-21T11:46:59.461Z,474.3
2019-03-21T11:48:02.166Z,474
2019-03-21T11:49:04.707Z,474.7
2019-03-21T11:50:07.136Z,475
2019-03-21T11:51:09.559Z,474.9
2019-03-21T11:53:16.982Z,474.7
2019-03-21T11:54:19.462Z,474.8
2019-03-21T11:55:21.769Z,475.2
2019-03-21T11:56:24.217Z,476.1
2019-03-21T11:57:26.346Z,476.3
2019-03-21T11:58:28.859Z,475.8
2019-03-21T12:01:41.263Z,475.6
2019-03-21T12:02:43.856Z,475.9
2019-03-21T12:03:46.071Z,476.5
2019-03-21T12:04:48.500Z,476.9
2019-03-21T12:05:50.933Z,476.6
2019-03-21T12:06:53.095Z,476.7
2019-03-21T12:07:55.291Z,477.4
2019-03-21T12:08:57.762Z,477.5
2019-03-21T12:09:59.638Z,477.7
2019-03-21T12:11:01.800Z,477
2019-03-21T12:12:04.007Z,477.6
2019-03-21T12:13:06.438Z,477.2
2019-03-21T12:14:09.042Z,477.6
2019-03-21T12:15:10.894Z,478.1
2019-03-21T12:16:12.788Z,477.5
2019-03-21T12:17:15.223Z,477.2
2019-03-21T12:18:17.656Z,478.1
2019-03-21T12:19:20.095Z,478.9
2019-03-21T12:20:22.270Z,478.5
2019-03-21T12:21:24.760Z,478.8
2019-03-21T12:23:32.177Z,478.6
2019-03-21T12:24:34.602Z,477.3
2019-03-21T12:25:37.231Z,478.9
2019-03-21T12:26:39.663Z,478.9
2019-03-21T12:27:42.089Z,479.1
2019-03-21T12:28:44.536Z,479.1
2019-03-21T12:29:46.968Z,478.9
2019-03-21T12:30:49.398Z,479.2
2019-03-21T12:31:51.825Z,478.8
2019-03-21T12:32:54.258Z,478.8
2019-03-21T12:33:59.111Z,479.3
2019-03-21T12:35:03.624Z,479.4
2019-03-21T12:36:06.060Z,479.7
2019-03-21T12:37:08.214Z,479.6
2019-03-21T12:38:10.639Z,479.4
2019-03-21T12:39:13.060Z,479.2
2019-03-21T12:40:14.408Z,479.8
2019-03-21T12:41:16.574Z,479.3
2019-03-21T12:42:18.479Z,480.2
2019-03-21T12:43:20.904Z,480.3
2019-03-21T12:44:23.339Z,481.3
2019-03-21T12:45:25.992Z,480.9
2019-03-21T12:46:28.398Z,480.8
2019-03-21T12:48:35.841Z,481.4
2019-03-21T12:49:37.968Z,481.5
2019-03-21T12:50:40.154Z,480.8
2019-03-21T12:51:42.582Z,481.7
2019-03-21T12:52:45.008Z,481.6
2019-03-21T12:53:47.176Z,481.9
2019-03-21T12:54:49.328Z,482.3
2019-03-21T12:55:51.485Z,482.2
2019-03-21T12:56:54.812Z,482
2019-03-21T12:57:57.258Z,482.3
2019-03-21T12:58:59.404Z,481.7
2019-03-21T13:00:01.610Z,482
2019-03-21T13:01:04.058Z,482.8
2019-03-21T13:02:06.493Z,482.9
2019-03-21T13:03:08.935Z,483
2019-03-21T13:04:11.376Z,482.9
2019-03-21T13:05:13.248Z,483
2019-03-21T13:06:15.754Z,483.4
2019-03-21T13:07:21.077Z,483.3
2019-03-21T13:09:28.496Z,481.9
2019-03-21T13:10:30.926Z,482.5
2019-03-21T13:11:33.373Z,482.6
2019-03-21T13:12:35.810Z,482.6
2019-03-21T13:13:38.400Z,483.1
2019-03-21T13:14:40.572Z,483.3
2019-03-21T13:15:42.727Z,482.1
2019-03-21T13:16:44.880Z,482.6
2019-03-21T13:17:47.027Z,482.7
2019-03-21T13:18:49.198Z,483
2019-03-21T13:19:51.628Z,483.5
2019-03-21T13:20:54.070Z,483.4
2019-03-21T13:21:56.490Z,482.9
2019-03-21T13:22:58.671Z,483.1
2019-03-21T13:24:00.846Z,483.6
2019-03-21T13:25:03.274Z,483.5
2019-03-21T13:26:05.429Z,483.5
2019-03-21T13:27:07.853Z,483.4
2019-03-21T13:28:10.324Z,484
2019-03-21T13:29:12.768Z,483.7
2019-03-21T13:30:15.201Z,483.5
2019-03-21T13:31:17.651Z,484
2019-03-21T13:32:20.190Z,484.3
2019-03-21T13:33:22.650Z,483.9
2019-03-21T13:34:25.099Z,484.5
2019-03-21T13:35:42.182Z,484.1
2019-03-21T13:36:44.614Z,484.4
2019-03-21T13:37:47.047Z,484.1
2019-03-21T13:38:49.184Z,484.5
2019-03-21T13:39:51.624Z,484.4
2019-03-21T13:40:54.068Z,484.3
2019-03-21T13:41:56.499Z,484.6
2019-03-21T13:42:58.386Z,484.8
2019-03-21T13:44:00.292Z,484.3
2019-03-21T13:45:02.729Z,484.2
2019-03-21T13:46:05.162Z,484.6
2019-03-21T13:47:07.306Z,484.7
2019-03-21T13:48:09.447Z,484.3
2019-03-21T13:49:11.893Z,484.4
2019-03-21T13:50:14.317Z,484.7
2019-03-21T13:51:16.758Z,484.6
2019-03-21T13:52:18.916Z,484.4
2019-03-21T13:53:21.397Z,485.1